createdAt,value
2023-02-17T00:01:08.855Z,11.25
2023-02-17T00:03:35.697Z,10.70
2023-02-17T00:08:46.237Z,11.73
2023-02-17T00:11:14.188Z,10.15
2023-02-17T00:13:42.477Z,9.98
2023-02-17T00:16:12.375Z,10.60
2023-02-17T00:18:39.338Z,11.10
2023-02-17T00:21:21.455Z,11.15
2023-02-17T00:23:50.094Z,10.15
2023-02-17T00:26:18.276Z,10.13
2023-02-17T00:28:45.936Z,10.77
2023-02-17T00:31:19.097Z,11.35
2023-02-17T00:33:46.520Z,11.07
2023-02-17T00:36:19.546Z,11.20
2023-02-17T00:41:16.397Z,10.52
2023-02-17T00:43:43.451Z,10.70
2023-02-17T00:46:10.530Z,10.48
2023-02-17T00:48:37.488Z,9.90
2023-02-17T00:51:04.805Z,9.25
2023-02-17T00:53:31.907Z,10.40
2023-02-17T00:55:59.220Z,9.95
2023-02-17T00:58:26.571Z,9.82
2023-02-17T01:00:56.038Z,10.55
2023-02-17T01:03:23.824Z,9.15
2023-02-17T01:05:51.160Z,9.48
2023-02-17T01:08:18.845Z,9.20
2023-02-17T01:10:47.490Z,9.68
2023-02-17T01:13:16.573Z,8.52
2023-02-17T01:15:52.383Z,9.18
2023-02-17T01:18:23.041Z,8.48
2023-02-17T01:20:50.270Z,9.35
2023-02-17T01:23:17.668Z,8.75
2023-02-17T01:25:46.666Z,8.60
2023-02-17T01:28:20.626Z,7.57
2023-02-17T01:30:48.710Z,7.28
2023-02-17T01:33:15.949Z,8.05
2023-02-17T01:35:43.206Z,7.35
2023-02-17T01:38:10.301Z,7.40
2023-02-17T01:40:37.329Z,7.13
2023-02-17T01:43:04.661Z,6.93
2023-02-17T01:45:46.581Z,7.10
2023-02-17T01:48:18.805Z,6.80
2023-02-17T01:51:01.859Z,7.00
2023-02-17T01:53:43.374Z,6.78
2023-02-17T01:56:11.698Z,6.05
2023-02-17T01:58:43.129Z,6.43
2023-02-17T02:01:10.286Z,6.13
2023-02-17T02:03:38.976Z,6.35
2023-02-17T02:06:14.003Z,6.15
2023-02-17T02:09:17.013Z,6.32
2023-02-17T02:11:44.080Z,6.32
2023-02-17T02:14:11.867Z,5.85
2023-02-17T02:17:10.144Z,5.78
2023-02-17T02:19:59.099Z,5.80
2023-02-17T02:23:00.895Z,5.97
2023-02-17T02:25:52.370Z,5.03
2023-02-17T02:28:59.275Z,5.28
2023-02-17T02:31:43.274Z,5.50
2023-02-17T02:34:15.439Z,5.15
2023-02-17T02:37:08.475Z,5.43
2023-02-17T02:39:40.550Z,5.10
2023-02-17T02:42:13.366Z,5.10
2023-02-17T02:44:40.945Z,5.57
2023-02-17T02:47:36.863Z,4.97
2023-02-17T02:50:09.945Z,5.43
2023-02-17T02:53:04.929Z,4.78
2023-02-17T02:55:48.384Z,4.97
2023-02-17T02:58:22.856Z,4.90
2023-02-17T03:01:37.341Z,4.95
2023-02-17T03:04:31.914Z,5.40
2023-02-17T03:07:08.082Z,4.85
2023-02-17T03:09:35.537Z,4.60
2023-02-17T03:12:02.761Z,5.68
2023-02-17T03:14:36.941Z,4.60
2023-02-17T03:17:04.488Z,5.10
2023-02-17T03:19:31.924Z,5.18
2023-02-17T03:22:07.739Z,5.38
2023-02-17T03:24:35.907Z,5.40
2023-02-17T03:27:03.306Z,5.28
2023-02-17T03:29:31.419Z,5.03
2023-02-17T03:32:00.942Z,5.22
2023-02-17T03:34:28.002Z,5.57
2023-02-17T03:36:55.056Z,5.13
2023-02-17T03:39:33.495Z,5.53
2023-02-17T03:42:00.435Z,5.22
2023-02-17T03:44:27.408Z,5.43
2023-02-17T03:46:54.595Z,5.47
2023-02-17T03:49:21.779Z,5.55
2023-02-17T03:51:48.758Z,5.20
2023-02-17T03:54:15.565Z,5.82
2023-02-17T03:56:42.798Z,5.70
2023-02-17T03:59:09.843Z,5.93
2023-02-17T04:01:36.989Z,5.32
2023-02-17T04:04:04.401Z,6.07
2023-02-17T04:06:31.635Z,5.65
2023-02-17T04:08:59.044Z,5.38
2023-02-17T04:11:26.278Z,5.07
2023-02-17T04:13:53.365Z,5.53
2023-02-17T04:16:20.423Z,5.57
2023-02-17T04:18:47.530Z,5.53
2023-02-17T04:21:14.791Z,5.97
2023-02-17T04:23:42.135Z,5.22
2023-02-17T04:26:09.311Z,4.97
2023-02-17T04:28:39.396Z,5.63
2023-02-17T04:31:06.395Z,5.88
2023-02-17T04:33:33.483Z,5.43
2023-02-17T04:36:00.658Z,5.10
2023-02-17T04:38:32.607Z,4.68
2023-02-17T04:41:00.781Z,5.93
2023-02-17T04:43:28.780Z,4.97
2023-02-17T04:45:56.247Z,5.60
2023-02-17T04:48:24.189Z,6.00
2023-02-17T04:50:51.802Z,5.30
2023-02-17T04:53:19.655Z,5.28
2023-02-17T04:56:02.210Z,5.65
2023-02-17T04:58:29.022Z,5.75
2023-02-17T05:01:00.045Z,5.18
2023-02-17T05:03:27.229Z,5.40
2023-02-17T05:05:54.164Z,5.45
2023-02-17T05:08:20.985Z,5.10
2023-02-17T05:10:47.869Z,5.60
2023-02-17T05:13:15.017Z,5.80
2023-02-17T05:15:44.018Z,5.65
2023-02-17T05:18:11.183Z,5.13
2023-02-17T05:20:37.969Z,5.57
2023-02-17T05:23:04.926Z,5.72
2023-02-17T05:25:31.950Z,5.45
2023-02-17T05:27:58.688Z,5.82
2023-02-17T05:30:25.590Z,5.07
2023-02-17T05:32:52.578Z,5.57
2023-02-17T05:35:19.528Z,5.85
2023-02-17T05:37:46.324Z,6.18
2023-02-17T05:40:13.491Z,5.70
2023-02-17T05:42:40.366Z,5.60
2023-02-17T05:45:07.452Z,5.25
2023-02-17T05:47:35.547Z,5.75
2023-02-17T05:50:02.630Z,5.43
2023-02-17T05:52:29.448Z,5.93
2023-02-17T05:54:56.364Z,5.53
2023-02-17T05:57:23.611Z,5.68
2023-02-17T05:59:50.481Z,5.85
2023-02-17T06:02:17.272Z,6.07
2023-02-17T06:04:44.433Z,6.40
2023-02-17T06:07:20.882Z,6.28
2023-02-17T06:09:47.721Z,5.80
2023-02-17T06:12:14.615Z,5.13
2023-02-17T06:14:41.878Z,5.30
2023-02-17T06:17:08.741Z,5.82
2023-02-17T06:19:35.566Z,5.70
2023-02-17T06:22:02.392Z,5.72
2023-02-17T06:24:29.151Z,5.93
2023-02-17T06:26:55.936Z,5.32
2023-02-17T06:29:22.725Z,5.30
2023-02-17T06:31:49.604Z,5.30
2023-02-17T06:34:16.604Z,5.07
2023-02-17T06:36:43.374Z,5.57
2023-02-17T06:39:10.298Z,4.97
2023-02-17T06:41:37.076Z,5.22
2023-02-17T06:44:04.039Z,4.68
2023-02-17T06:46:31.156Z,5.07
2023-02-17T06:48:58.033Z,4.65
2023-02-17T06:51:24.860Z,4.50
2023-02-17T06:53:51.621Z,4.30
2023-02-17T06:56:20.864Z,4.85
2023-02-17T06:58:47.983Z,4.72
2023-02-17T07:01:19.821Z,4.45
2023-02-17T07:03:47.175Z,4.50
2023-02-17T07:06:14.250Z,5.20
2023-02-17T07:08:41.157Z,4.20
2023-02-17T07:11:09.333Z,4.38
2023-02-17T07:13:36.246Z,4.50
2023-02-17T07:16:03.372Z,4.65
2023-02-17T07:18:30.512Z,5.35
2023-02-17T07:20:57.317Z,5.25
2023-02-17T07:23:24.094Z,5.38
2023-02-17T07:25:51.130Z,4.95
2023-02-17T07:28:17.957Z,5.57
2023-02-17T07:30:45.125Z,4.93
2023-02-17T07:33:12.047Z,5.10
2023-02-17T07:35:45.172Z,5.22
2023-02-17T07:38:12.817Z,5.40
2023-02-17T07:40:39.683Z,4.70
2023-02-17T07:43:06.733Z,4.82
2023-02-17T07:45:34.010Z,5.00
2023-02-17T07:48:00.770Z,4.95
2023-02-17T07:50:27.540Z,4.80
2023-02-17T07:52:54.353Z,5.50
2023-02-17T07:55:21.048Z,5.13
2023-02-17T07:57:47.900Z,4.68
2023-02-17T08:00:15.341Z,4.80
2023-02-17T08:02:42.159Z,4.50
2023-02-17T08:05:09.098Z,4.80
2023-02-17T08:07:35.922Z,4.25
2023-02-17T08:10:21.185Z,4.30
2023-02-17T08:13:06.534Z,4.43
2023-02-17T08:15:34.898Z,4.13
2023-02-17T08:18:04.800Z,3.85
2023-02-17T08:20:33.130Z,4.05
2023-02-17T08:23:02.757Z,3.95
2023-02-17T08:25:33.195Z,3.78
2023-02-17T08:28:00.474Z,3.78
2023-02-17T08:30:27.307Z,3.67
2023-02-17T08:32:54.226Z,3.40
2023-02-17T08:35:22.662Z,3.97
2023-02-17T08:37:50.478Z,3.63
2023-02-17T08:40:18.333Z,3.63
2023-02-17T08:42:45.383Z,4.13
2023-02-17T08:45:14.361Z,3.40
2023-02-17T08:47:41.730Z,3.30
2023-02-17T08:50:10.019Z,3.50
2023-02-17T08:52:36.853Z,3.45
2023-02-17T08:55:04.064Z,3.10
2023-02-17T08:57:30.896Z,3.22
2023-02-17T08:59:57.733Z,3.25
2023-02-17T09:02:24.511Z,2.95
2023-02-17T09:04:51.437Z,3.30
2023-02-17T09:07:18.360Z,3.30
2023-02-17T09:09:45.402Z,3.40
2023-02-17T09:12:12.581Z,3.10
2023-02-17T09:14:39.386Z,3.55
2023-02-17T09:17:06.288Z,2.67
2023-02-17T09:19:33.063Z,3.05
2023-02-17T09:21:59.940Z,3.10
2023-02-17T09:24:26.741Z,2.83
2023-02-17T09:26:53.531Z,3.20
2023-02-17T09:29:20.445Z,2.72
2023-02-17T09:31:47.421Z,3.03
2023-02-17T09:34:14.748Z,2.53
2023-02-17T09:36:42.521Z,2.50
2023-02-17T09:39:11.576Z,3.00
2023-02-17T09:41:47.799Z,2.53
2023-02-17T09:44:26.259Z,2.75
2023-02-17T09:47:05.471Z,2.40
2023-02-17T09:49:39.327Z,2.33
2023-02-17T09:52:28.324Z,2.20
2023-02-17T09:55:01.844Z,2.10
2023-02-17T09:57:32.423Z,2.10
2023-02-17T10:00:08.195Z,1.60
2023-02-17T10:02:48.468Z,1.90
2023-02-17T10:05:19.324Z,1.80
2023-02-17T10:08:04.835Z,2.00
2023-02-17T10:10:42.329Z,1.45
2023-02-17T10:13:10.096Z,1.83
2023-02-17T10:15:43.219Z,1.80
2023-02-17T10:18:19.125Z,1.55
2023-02-17T10:20:53.737Z,1.58
2023-02-17T10:23:23.908Z,1.33
2023-02-17T10:26:09.628Z,1.70
2023-02-17T10:28:50.986Z,1.20
2023-02-17T10:31:36.731Z,1.20
2023-02-17T10:34:13.400Z,1.05
2023-02-17T10:36:43.402Z,1.20
2023-02-17T10:39:21.572Z,1.40
2023-02-17T10:41:51.606Z,0.90
2023-02-17T10:44:23.202Z,1.13
2023-02-17T10:46:51.101Z,1.20
2023-02-17T10:49:32.854Z,1.00
2023-02-17T10:52:22.613Z,1.05
2023-02-17T10:55:22.019Z,0.95
2023-02-17T10:57:58.794Z,1.00
2023-02-17T11:00:26.844Z,0.73
2023-02-17T11:02:54.200Z,0.90
2023-02-17T11:05:32.850Z,1.10
2023-02-17T11:08:06.463Z,0.90
2023-02-17T11:10:40.120Z,0.90
2023-02-17T11:13:34.935Z,0.82
2023-02-17T11:16:02.513Z,0.70
2023-02-17T11:18:34.517Z,0.82
2023-02-17T11:21:08.557Z,0.87
2023-02-17T11:23:36.214Z,0.80
2023-02-17T11:26:21.637Z,0.75
2023-02-17T11:28:48.443Z,0.68
2023-02-17T11:31:28.611Z,0.60
2023-02-17T11:33:57.070Z,0.70
2023-02-17T11:36:30.700Z,0.88
2023-02-17T11:38:57.968Z,0.50
2023-02-17T11:41:24.781Z,0.68
2023-02-17T11:43:58.566Z,0.70
2023-02-17T11:46:32.269Z,0.70
2023-02-17T11:49:32.991Z,0.70
2023-02-17T11:52:33.877Z,0.60
2023-02-17T11:55:14.702Z,1.05
2023-02-17T11:57:53.939Z,0.73
2023-02-17T12:00:55.095Z,0.52
2023-02-17T12:03:24.649Z,0.57
2023-02-17T12:06:22.232Z,0.55
2023-02-17T12:09:16.275Z,0.60
2023-02-17T12:12:03.104Z,1.02
2023-02-17T12:14:55.645Z,0.52
2023-02-17T12:17:49.565Z,0.50
2023-02-17T12:20:34.797Z,0.65
2023-02-17T12:23:11.741Z,0.60
2023-02-17T12:25:47.130Z,0.60
2023-02-17T12:28:44.630Z,0.45
2023-02-17T12:31:17.542Z,0.63
2023-02-17T12:36:15.165Z,0.50
2023-02-17T12:38:55.309Z,0.50
2023-02-17T12:41:34.968Z,0.63
2023-02-17T12:44:08.204Z,0.50
2023-02-17T12:46:38.026Z,0.70
2023-02-17T12:49:14.554Z,0.50
2023-02-17T12:51:54.363Z,0.70
2023-02-17T12:54:45.201Z,0.52
2023-02-17T12:57:27.292Z,0.57
2023-02-17T12:59:54.664Z,0.60
2023-02-17T13:02:23.993Z,0.90
2023-02-17T13:04:54.964Z,0.60
2023-02-17T13:07:52.369Z,0.85
2023-02-17T13:10:27.949Z,0.80
2023-02-17T13:13:04.525Z,0.70
2023-02-17T13:15:39.040Z,0.70
2023-02-17T13:18:27.777Z,0.52
2023-02-17T13:20:58.546Z,0.45
2023-02-17T13:23:39.083Z,0.65
2023-02-17T13:26:36.544Z,0.90
2023-02-17T13:29:32.373Z,0.60
2023-02-17T13:32:05.535Z,0.63
2023-02-17T13:34:35.888Z,0.70
2023-02-17T13:37:35.008Z,0.80
2023-02-17T13:40:24.032Z,0.60
2023-02-17T13:43:07.864Z,0.80
2023-02-17T13:45:42.818Z,0.85
2023-02-17T13:48:20.419Z,0.80
2023-02-17T13:50:50.413Z,0.90
2023-02-17T13:53:33.957Z,0.57
2023-02-17T13:56:05.900Z,0.80
2023-02-17T13:58:37.168Z,0.90
2023-02-17T14:01:06.734Z,0.45
2023-02-17T14:03:45.655Z,0.70
2023-02-17T14:06:36.042Z,0.90
2023-02-17T14:09:22.150Z,0.93
2023-02-17T14:11:49.954Z,1.23
2023-02-17T14:14:17.244Z,0.82
2023-02-17T14:16:44.917Z,0.70
2023-02-17T14:19:17.580Z,0.63
2023-02-17T14:21:56.633Z,0.90
2023-02-17T14:24:35.446Z,0.63
2023-02-17T14:27:09.889Z,1.00
2023-02-17T14:29:47.771Z,0.85
2023-02-17T14:32:35.950Z,0.60
2023-02-17T14:35:14.640Z,0.80
2023-02-17T14:37:45.082Z,0.90
2023-02-17T14:40:19.639Z,0.90
2023-02-17T14:42:47.492Z,0.88
2023-02-17T14:45:15.298Z,1.13
2023-02-17T14:47:46.254Z,1.13
2023-02-17T14:50:13.717Z,1.20
2023-02-17T14:52:46.449Z,1.20
2023-02-17T14:55:38.921Z,0.82
2023-02-17T14:58:05.850Z,1.30
2023-02-17T15:00:32.606Z,1.23
2023-02-17T15:02:59.379Z,1.10
2023-02-17T15:05:26.286Z,1.10
2023-02-17T15:07:53.186Z,1.10
2023-02-17T15:10:25.627Z,1.33
2023-02-17T15:12:52.984Z,1.48
2023-02-17T15:15:20.048Z,1.20
2023-02-17T15:17:46.971Z,0.90
2023-02-17T15:20:15.867Z,1.20
2023-02-17T15:22:44.377Z,1.27
2023-02-17T15:28:03.123Z,1.65
2023-02-17T15:30:29.985Z,1.50
2023-02-17T15:32:56.849Z,1.45
2023-02-17T15:35:26.850Z,1.77
2023-02-17T15:37:54.573Z,1.85
2023-02-17T15:40:24.193Z,1.70
2023-02-17T15:42:55.369Z,1.42
2023-02-17T15:45:23.446Z,1.60
2023-02-17T15:47:52.790Z,1.77
2023-02-17T15:50:22.947Z,1.90
2023-02-17T15:52:50.983Z,1.60
2023-02-17T15:55:19.176Z,1.90
2023-02-17T15:57:49.032Z,1.90
2023-02-17T16:00:20.658Z,1.90
2023-02-17T16:02:47.427Z,2.20
2023-02-17T16:05:16.342Z,2.53
2023-02-17T16:07:43.935Z,2.15
2023-02-17T16:10:13.440Z,2.65
2023-02-17T16:12:40.730Z,2.30
2023-02-17T16:15:13.817Z,2.30
2023-02-17T16:17:40.991Z,2.80
2023-02-17T16:20:21.736Z,2.30
2023-02-17T16:22:49.175Z,2.00
2023-02-17T16:25:17.696Z,1.70
2023-02-17T16:27:47.166Z,1.90
2023-02-17T16:30:35.674Z,2.30
2023-02-17T16:33:03.456Z,1.85
2023-02-17T16:35:32.424Z,1.98
2023-02-17T16:38:20.939Z,2.08
2023-02-17T16:40:51.354Z,2.28
2023-02-17T16:43:21.242Z,2.58
2023-02-17T16:46:06.671Z,2.95
2023-02-17T16:48:36.620Z,2.97
2023-02-17T16:51:03.413Z,2.92
2023-02-17T16:53:30.285Z,3.20
2023-02-17T16:55:58.363Z,3.25
2023-02-17T16:58:26.294Z,3.20
2023-02-17T17:00:55.163Z,3.58
2023-02-17T17:03:22.660Z,3.60
2023-02-17T17:05:51.645Z,3.92
2023-02-17T17:08:20.619Z,3.85
2023-02-17T17:10:49.404Z,3.83
2023-02-17T17:13:16.704Z,4.50
2023-02-17T17:15:45.746Z,4.65
2023-02-17T17:18:21.521Z,5.57
2023-02-17T17:20:48.790Z,5.50
2023-02-17T17:23:16.470Z,5.97
2023-02-17T17:25:46.502Z,5.75
2023-02-17T17:28:14.740Z,5.43
2023-02-17T17:30:41.612Z,5.05
2023-02-17T17:33:08.425Z,5.03
2023-02-17T17:35:35.444Z,4.28
2023-02-17T17:38:02.415Z,4.05
2023-02-17T17:40:48.548Z,3.35
2023-02-17T17:43:20.348Z,3.38
2023-02-17T17:45:51.925Z,3.28
2023-02-17T17:48:19.129Z,3.10
2023-02-17T17:50:48.010Z,3.38
2023-02-17T17:53:14.923Z,3.17
2023-02-17T17:55:41.757Z,3.80
2023-02-17T17:58:08.598Z,3.95
2023-02-17T18:00:35.464Z,4.38
2023-02-17T18:03:02.263Z,5.13
2023-02-17T18:05:29.059Z,5.00
2023-02-17T18:07:56.455Z,5.00
2023-02-17T18:10:23.462Z,5.32
2023-02-17T18:12:50.420Z,5.63
2023-02-17T18:17:52.587Z,5.68
2023-02-17T18:20:19.572Z,5.85
2023-02-17T18:22:46.349Z,5.43
2023-02-17T18:25:13.192Z,5.28
2023-02-17T18:27:42.661Z,5.13
2023-02-17T18:30:12.097Z,4.45
2023-02-17T18:32:39.025Z,4.57
2023-02-17T18:35:06.253Z,4.63
2023-02-17T18:37:33.913Z,4.90
2023-02-17T18:40:02.408Z,4.03
2023-02-17T18:42:29.475Z,3.60
2023-02-17T18:44:56.801Z,3.67
2023-02-17T18:47:24.031Z,3.35
2023-02-17T18:49:51.086Z,3.78
2023-02-17T18:52:18.319Z,3.38
2023-02-17T18:54:45.975Z,4.10
2023-02-17T18:57:12.892Z,3.97
2023-02-17T18:59:39.824Z,4.22
2023-02-17T19:02:08.794Z,3.67
2023-02-17T19:04:35.952Z,3.63
2023-02-17T19:07:04.451Z,3.70
2023-02-17T19:09:32.923Z,3.50
2023-02-17T19:11:59.982Z,3.40
2023-02-17T19:14:27.077Z,3.55
2023-02-17T19:16:53.983Z,3.25
2023-02-17T19:19:22.216Z,4.13
2023-02-17T19:21:49.709Z,3.55
2023-02-17T19:24:17.179Z,3.75
2023-02-17T19:26:44.990Z,3.63
2023-02-17T19:29:11.948Z,3.35
2023-02-17T19:31:38.874Z,3.20
2023-02-17T19:34:05.743Z,3.20
2023-02-17T19:36:32.630Z,4.15
2023-02-17T19:38:59.462Z,3.50
2023-02-17T19:41:26.405Z,3.38
2023-02-17T19:43:53.260Z,3.92
2023-02-17T19:46:22.854Z,3.22
2023-02-17T19:48:50.201Z,3.25
2023-02-17T19:51:17.429Z,3.70
2023-02-17T19:53:44.686Z,3.38
2023-02-17T19:56:25.030Z,3.65
2023-02-17T19:58:53.022Z,3.40
2023-02-17T20:01:22.761Z,3.60
2023-02-17T20:03:50.382Z,3.53
2023-02-17T20:06:21.116Z,3.25
2023-02-17T20:08:55.564Z,3.30
2023-02-17T20:11:22.826Z,3.30
2023-02-17T20:13:50.534Z,3.70
2023-02-17T20:16:18.581Z,3.75
2023-02-17T20:18:47.840Z,3.83
2023-02-17T20:21:19.848Z,3.55
2023-02-17T20:23:46.906Z,3.78
2023-02-17T20:26:21.762Z,3.80
2023-02-17T20:28:50.095Z,3.55
2023-02-17T20:31:17.698Z,3.63
2023-02-17T20:33:44.988Z,3.80
2023-02-17T20:36:12.142Z,3.67
2023-02-17T20:38:40.453Z,4.30
2023-02-17T20:41:09.089Z,3.88
2023-02-17T20:43:38.365Z,4.03
2023-02-17T20:46:05.622Z,4.03
2023-02-17T20:48:32.877Z,3.67
2023-02-17T20:50:59.979Z,3.97
2023-02-17T20:53:27.279Z,3.95
2023-02-17T20:55:54.244Z,3.75
2023-02-17T20:58:21.237Z,3.88
2023-02-17T21:00:48.559Z,3.70
2023-02-17T21:03:15.574Z,3.85
2023-02-17T21:05:42.470Z,3.80
2023-02-17T21:08:09.452Z,3.78
2023-02-17T21:10:36.404Z,3.88
2023-02-17T21:13:03.382Z,3.53
2023-02-17T21:15:30.308Z,3.60
2023-02-17T21:17:57.368Z,3.53
2023-02-17T21:20:24.341Z,3.63
2023-02-17T21:22:51.510Z,3.35
2023-02-17T21:25:20.642Z,3.35
2023-02-17T21:27:47.692Z,3.10
2023-02-17T21:30:15.029Z,3.40
2023-02-17T21:32:42.518Z,4.00
2023-02-17T21:35:12.878Z,3.75
2023-02-17T21:37:40.274Z,3.90
2023-02-17T21:40:09.020Z,4.53
2023-02-17T21:42:56.374Z,3.83
2023-02-17T21:45:23.900Z,3.72
2023-02-17T21:47:53.323Z,4.30
2023-02-17T21:50:21.416Z,4.50
2023-02-17T21:52:48.379Z,4.57
2023-02-17T21:55:15.410Z,5.00
2023-02-17T21:57:42.389Z,5.45
2023-02-17T22:00:09.784Z,5.15
2023-02-17T22:02:37.069Z,5.47
2023-02-17T22:05:04.727Z,4.90
2023-02-17T22:07:31.767Z,4.97
2023-02-17T22:09:59.560Z,5.30
2023-02-17T22:12:29.326Z,4.97
2023-02-17T22:14:56.200Z,5.00
2023-02-17T22:17:23.052Z,4.75
2023-02-17T22:19:50.083Z,4.60
2023-02-17T22:22:17.004Z,4.40
2023-02-17T22:24:44.037Z,5.25
2023-02-17T22:27:11.032Z,4.55
2023-02-17T22:29:37.967Z,4.88
2023-02-17T22:32:05.337Z,5.15
2023-02-17T22:34:32.213Z,4.95
2023-02-17T22:36:59.073Z,6.03
2023-02-17T22:39:25.902Z,6.18
2023-02-17T22:41:52.700Z,5.65
2023-02-17T22:44:19.475Z,5.30
2023-02-17T22:46:46.326Z,5.28
2023-02-17T22:49:13.335Z,5.53
2023-02-17T22:51:40.739Z,5.57
2023-02-17T22:54:08.581Z,5.47
2023-02-17T22:56:36.139Z,5.43
2023-02-17T22:59:04.896Z,5.63
2023-02-17T23:01:34.761Z,6.18
2023-02-17T23:04:01.900Z,5.50
2023-02-17T23:06:37.663Z,5.68
2023-02-17T23:09:05.967Z,4.43
2023-02-17T23:11:50.551Z,4.90
2023-02-17T23:14:21.731Z,4.57
2023-02-17T23:16:48.579Z,4.55
2023-02-17T23:19:17.906Z,4.85
2023-02-17T23:21:51.275Z,4.85
2023-02-17T23:24:19.557Z,4.03
2023-02-17T23:26:47.615Z,3.97
2023-02-17T23:29:15.941Z,4.13
2023-02-17T23:31:43.056Z,3.90
2023-02-17T23:34:12.871Z,3.60
2023-02-17T23:36:40.636Z,3.10
2023-02-17T23:39:07.817Z,3.40
2023-02-17T23:41:37.057Z,3.10
2023-02-17T23:44:04.540Z,3.17
2023-02-17T23:46:31.459Z,2.70
2023-02-17T23:48:58.417Z,3.10
2023-02-17T23:51:25.525Z,3.03
2023-02-17T23:53:52.526Z,3.40
2023-02-17T23:56:28.812Z,2.80
2023-02-17T23:58:55.657Z,2.72
